createdAt,value
2022-11-20T00:01:37.433Z,25.83
2022-11-20T00:04:07.126Z,24.23
2022-11-20T00:06:35.415Z,22.90
2022-11-20T00:09:04.344Z,21.20
2022-11-20T00:11:33.905Z,21.87
2022-11-20T00:14:04.060Z,20.33
2022-11-20T00:16:35.371Z,20.13
2022-11-20T00:19:04.083Z,20.70
2022-11-20T00:21:34.192Z,21.23
2022-11-20T00:24:02.472Z,21.92
2022-11-20T00:26:31.326Z,22.13
2022-11-20T00:29:01.803Z,20.60
2022-11-20T00:31:31.667Z,20.27
2022-11-20T00:33:59.996Z,20.67
2022-11-20T00:36:30.852Z,20.13
2022-11-20T00:39:01.161Z,20.67
2022-11-20T00:41:30.813Z,20.52
2022-11-20T00:43:59.430Z,20.67
2022-11-20T00:46:30.117Z,20.53
2022-11-20T00:48:59.073Z,20.73
2022-11-20T00:51:29.203Z,19.13
2022-11-20T00:54:00.987Z,21.63
2022-11-20T00:56:29.806Z,21.83
2022-11-20T00:59:01.470Z,20.03
2022-11-20T01:01:31.084Z,19.77
2022-11-20T01:04:01.779Z,19.80
2022-11-20T01:06:32.821Z,20.13
2022-11-20T01:09:06.316Z,20.37
2022-11-20T01:11:37.373Z,18.50
2022-11-20T01:14:08.658Z,19.83
2022-11-20T01:16:39.916Z,19.83
2022-11-20T01:19:17.345Z,19.47
2022-11-20T01:21:48.448Z,20.07
2022-11-20T01:24:20.817Z,20.37
2022-11-20T01:26:51.970Z,21.87
2022-11-20T01:29:23.954Z,19.73
2022-11-20T01:31:53.671Z,20.40
2022-11-20T01:34:24.302Z,21.25
2022-11-20T01:39:25.004Z,20.67
2022-11-20T01:42:13.861Z,20.70
2022-11-20T01:44:54.248Z,19.50
2022-11-20T01:47:32.634Z,19.98
2022-11-20T01:50:06.840Z,20.13
2022-11-20T01:52:41.412Z,19.27
2022-11-20T01:55:16.916Z,19.77
2022-11-20T01:57:47.909Z,19.60
2022-11-20T02:00:20.768Z,20.10
2022-11-20T02:02:54.175Z,20.20
2022-11-20T02:05:33.417Z,20.83
2022-11-20T02:08:03.951Z,20.73
2022-11-20T02:13:19.987Z,20.15
2022-11-20T02:15:49.141Z,21.70
2022-11-20T02:18:21.296Z,20.10
2022-11-20T02:20:54.402Z,19.93
2022-11-20T02:23:32.142Z,20.57
2022-11-20T02:26:04.308Z,20.20
2022-11-20T02:28:32.700Z,20.80
2022-11-20T02:31:01.050Z,18.87
2022-11-20T02:33:29.351Z,20.67
2022-11-20T02:35:57.668Z,20.73
2022-11-20T02:38:26.279Z,19.63
2022-11-20T02:40:55.868Z,21.40
2022-11-20T02:43:26.114Z,20.48
2022-11-20T02:45:54.442Z,20.20
2022-11-20T02:48:25.095Z,20.50
2022-11-20T02:50:53.684Z,21.17
2022-11-20T02:53:22.025Z,20.37
2022-11-20T02:55:50.399Z,19.97
2022-11-20T02:58:18.783Z,21.30
2022-11-20T03:00:48.508Z,19.97
2022-11-20T03:03:16.845Z,19.75
2022-11-20T03:05:45.139Z,20.10
2022-11-20T03:08:13.407Z,21.60
2022-11-20T03:10:41.760Z,21.07
2022-11-20T03:13:10.358Z,21.77
2022-11-20T03:15:39.607Z,20.63
2022-11-20T03:18:09.354Z,20.67
2022-11-20T03:20:37.711Z,21.42
2022-11-20T03:23:06.290Z,20.73
2022-11-20T03:25:34.616Z,20.87
2022-11-20T03:28:03.065Z,21.07
2022-11-20T03:30:31.374Z,18.80
2022-11-20T03:32:59.956Z,21.03
2022-11-20T03:35:29.722Z,20.30
2022-11-20T03:37:59.621Z,22.10
2022-11-20T03:40:28.059Z,19.45
2022-11-20T03:42:56.484Z,21.00
2022-11-20T03:45:25.012Z,19.87
2022-11-20T03:47:53.770Z,20.47
2022-11-20T03:50:22.282Z,19.17
2022-11-20T03:52:52.249Z,20.50
2022-11-20T03:55:20.904Z,22.33
2022-11-20T03:57:49.242Z,20.80
2022-11-20T04:00:18.612Z,20.20
2022-11-20T04:02:46.985Z,20.30
2022-11-20T04:05:15.481Z,20.80
2022-11-20T04:07:43.795Z,20.57
2022-11-20T04:10:13.675Z,20.33
2022-11-20T04:12:41.965Z,21.40
2022-11-20T04:15:11.354Z,21.10
2022-11-20T04:17:39.729Z,21.97
2022-11-20T04:20:09.784Z,21.77
2022-11-20T04:22:38.155Z,21.25
2022-11-20T04:25:07.309Z,21.83
2022-11-20T04:27:37.014Z,21.60
2022-11-20T04:30:06.409Z,21.80
2022-11-20T04:32:34.717Z,21.00
2022-11-20T04:35:03.090Z,21.33
2022-11-20T04:37:31.431Z,21.97
2022-11-20T04:39:59.950Z,22.03
2022-11-20T04:42:30.956Z,21.53
2022-11-20T04:45:00.777Z,22.37
2022-11-20T04:47:29.470Z,20.50
2022-11-20T04:49:57.933Z,21.20
2022-11-20T04:52:26.287Z,21.80
2022-11-20T04:54:54.839Z,22.23
2022-11-20T04:57:23.770Z,21.13
2022-11-20T04:59:52.185Z,21.67
2022-11-20T05:02:22.227Z,21.33
2022-11-20T05:04:50.669Z,21.67
2022-11-20T05:07:19.255Z,21.67
2022-11-20T05:09:47.714Z,22.40
2022-11-20T05:12:16.151Z,22.33
2022-11-20T05:14:44.671Z,21.03
2022-11-20T05:17:13.684Z,22.70
2022-11-20T05:19:43.413Z,22.20
2022-11-20T05:22:11.831Z,21.52
2022-11-20T05:24:40.247Z,22.97
2022-11-20T05:27:08.665Z,22.77
2022-11-20T05:29:37.068Z,22.77
2022-11-20T05:32:06.809Z,22.50
2022-11-20T05:34:35.443Z,22.73
2022-11-20T05:37:05.549Z,22.53
2022-11-20T05:39:33.823Z,22.30
2022-11-20T05:42:19.726Z,23.03
2022-11-20T05:44:48.180Z,22.60
2022-11-20T05:47:16.472Z,22.87
2022-11-20T05:49:44.839Z,24.20
2022-11-20T05:52:14.540Z,22.90
2022-11-20T05:54:42.973Z,23.67
2022-11-20T05:57:11.370Z,23.33
2022-11-20T05:59:39.753Z,21.07
2022-11-20T06:02:08.141Z,22.83
2022-11-20T06:04:36.502Z,24.27
2022-11-20T06:07:06.592Z,22.67
2022-11-20T06:09:36.653Z,22.05
2022-11-20T06:12:05.931Z,24.17
2022-11-20T06:14:34.428Z,23.03
2022-11-20T06:17:02.894Z,22.40
2022-11-20T06:19:31.255Z,23.93
2022-11-20T06:21:59.606Z,23.10
2022-11-20T06:24:28.065Z,22.07
2022-11-20T06:26:57.837Z,21.50
2022-11-20T06:29:30.087Z,22.08
2022-11-20T06:32:02.096Z,22.30
2022-11-20T06:34:30.496Z,22.20
2022-11-20T06:36:58.937Z,23.37
2022-11-20T06:39:27.300Z,22.17
2022-11-20T06:41:58.958Z,23.73
2022-11-20T06:44:28.109Z,23.10
2022-11-20T06:46:56.452Z,23.90
2022-11-20T06:49:25.191Z,23.03
2022-11-20T06:51:53.663Z,22.67
2022-11-20T06:54:22.124Z,22.50
2022-11-20T06:56:50.945Z,23.83
2022-11-20T06:59:21.093Z,24.50
2022-11-20T07:01:49.555Z,23.13
2022-11-20T07:04:17.868Z,23.93
2022-11-20T07:06:46.532Z,22.50
2022-11-20T07:09:15.039Z,24.23
2022-11-20T07:11:43.458Z,23.47
2022-11-20T07:14:11.938Z,23.57
2022-11-20T07:16:41.660Z,23.83
2022-11-20T07:19:10.014Z,24.15
2022-11-20T07:21:38.381Z,23.37
2022-11-20T07:24:07.198Z,24.40
2022-11-20T07:26:36.490Z,24.00
2022-11-20T07:29:04.941Z,26.07
2022-11-20T07:31:33.229Z,25.00
2022-11-20T07:34:03.189Z,25.33
2022-11-20T07:36:31.539Z,25.33
2022-11-20T07:38:59.835Z,27.80
2022-11-20T07:41:28.643Z,26.53
2022-11-20T07:43:57.081Z,25.93
2022-11-20T07:46:25.455Z,25.43
2022-11-20T07:48:54.278Z,24.23
2022-11-20T07:51:24.158Z,26.00
2022-11-20T07:53:55.879Z,27.23
2022-11-20T07:56:24.205Z,31.30
2022-11-20T07:58:52.658Z,28.40
2022-11-20T08:01:21.289Z,26.53
2022-11-20T08:03:49.639Z,26.70
2022-11-20T08:06:19.536Z,27.33
2022-11-20T08:08:49.339Z,28.17
2022-11-20T08:11:49.623Z,28.67
2022-11-20T08:14:18.017Z,26.15
2022-11-20T08:16:49.045Z,28.30
2022-11-20T08:19:19.824Z,28.43
2022-11-20T08:21:48.542Z,27.43
2022-11-20T08:24:18.278Z,28.07
2022-11-20T08:26:46.740Z,27.63
2022-11-20T08:29:15.097Z,28.40
2022-11-20T08:31:43.876Z,28.67
2022-11-20T08:34:17.644Z,27.00
2022-11-20T08:36:47.526Z,27.40
2022-11-20T08:39:18.285Z,27.03
2022-11-20T08:41:46.761Z,27.50
2022-11-20T08:44:15.052Z,29.80
2022-11-20T08:46:44.929Z,29.50
2022-11-20T08:49:15.744Z,30.80
2022-11-20T08:51:44.722Z,31.07
2022-11-20T08:54:13.114Z,30.87
2022-11-20T08:56:42.913Z,32.03
2022-11-20T08:59:36.761Z,32.17
2022-11-20T09:01:59.593Z,32.13
2022-11-20T09:04:27.872Z,33.43
2022-11-20T09:06:56.160Z,33.60
2022-11-20T09:09:25.053Z,33.00
2022-11-20T09:11:55.001Z,32.90
2022-11-20T09:14:25.777Z,32.65
2022-11-20T09:16:54.391Z,33.03
2022-11-20T09:19:38.245Z,33.23
2022-11-20T09:22:06.657Z,33.97
2022-11-20T09:24:35.002Z,32.87
2022-11-20T09:27:08.011Z,36.73
2022-11-20T09:29:36.393Z,34.77
2022-11-20T09:32:05.005Z,35.63
2022-11-20T09:34:34.064Z,34.67
2022-11-20T09:37:06.158Z,35.47
2022-11-20T09:39:39.751Z,37.57
2022-11-20T09:42:35.356Z,36.83
2022-11-20T09:45:28.723Z,35.50
2022-11-20T09:48:32.179Z,36.70
2022-11-20T09:51:15.957Z,36.33
2022-11-20T09:54:02.930Z,37.43
2022-11-20T09:56:31.681Z,38.33
2022-11-20T09:59:07.529Z,37.37
2022-11-20T10:01:41.873Z,40.13
2022-11-20T10:04:18.436Z,39.77
2022-11-20T10:07:30.165Z,39.97
2022-11-20T10:09:52.853Z,38.13
2022-11-20T10:12:29.646Z,38.70
2022-11-20T10:15:22.012Z,39.77
2022-11-20T10:18:13.596Z,39.47
2022-11-20T10:20:51.019Z,38.60
2022-11-20T10:23:50.692Z,40.90
2022-11-20T10:26:30.646Z,40.23
2022-11-20T10:29:12.309Z,38.58
2022-11-20T10:31:44.515Z,38.77
2022-11-20T10:34:24.309Z,39.67
2022-11-20T10:36:58.077Z,38.40
2022-11-20T10:39:37.433Z,41.93
2022-11-20T10:42:13.683Z,39.87
2022-11-20T10:45:06.333Z,38.97
2022-11-20T10:47:36.873Z,40.00
2022-11-20T10:50:10.982Z,42.10
2022-11-20T10:52:50.223Z,42.43
2022-11-20T10:55:35.289Z,42.60
2022-11-20T10:58:12.476Z,42.20
2022-11-20T11:00:41.135Z,44.47
2022-11-20T11:03:28.262Z,42.37
2022-11-20T11:06:06.178Z,41.73
2022-11-20T11:08:40.494Z,41.43
2022-11-20T11:11:22.414Z,42.63
2022-11-20T11:13:51.177Z,42.50
2022-11-20T11:16:24.181Z,44.77
2022-11-20T11:18:54.384Z,42.23
2022-11-20T11:21:26.225Z,45.55
2022-11-20T11:24:19.569Z,45.70
2022-11-20T11:26:57.386Z,46.37
2022-11-20T11:29:27.814Z,46.53
2022-11-20T11:32:07.371Z,46.83
2022-11-20T11:34:37.260Z,47.03
2022-11-20T11:37:06.576Z,47.17
2022-11-20T11:39:44.681Z,47.37
2022-11-20T11:42:20.158Z,48.50
2022-11-20T11:45:07.854Z,47.47
2022-11-20T11:47:45.104Z,45.73
2022-11-20T11:50:22.024Z,47.37
2022-11-20T11:53:11.447Z,47.63
2022-11-20T11:55:46.065Z,48.47
2022-11-20T11:58:30.527Z,45.63
2022-11-20T12:01:05.545Z,46.73
2022-11-20T12:03:39.622Z,45.50
2022-11-20T12:06:15.823Z,45.37
2022-11-20T12:08:51.777Z,45.47
2022-11-20T12:11:28.834Z,46.50
2022-11-20T12:14:03.038Z,47.53
2022-11-20T12:16:37.215Z,46.40
2022-11-20T12:19:13.156Z,46.23
2022-11-20T12:22:01.467Z,48.57
2022-11-20T12:24:46.030Z,47.10
2022-11-20T12:27:46.660Z,44.37
2022-11-20T12:30:17.727Z,47.22
2022-11-20T12:33:10.429Z,45.73
2022-11-20T12:35:55.109Z,49.90
2022-11-20T12:38:42.738Z,47.97
2022-11-20T12:41:41.122Z,48.13
2022-11-20T12:44:42.983Z,46.33
2022-11-20T12:47:23.778Z,47.50
2022-11-20T12:50:00.395Z,50.03
2022-11-20T12:52:44.835Z,48.17
2022-11-20T12:55:30.882Z,49.07
2022-11-20T12:58:10.754Z,49.93
2022-11-20T13:00:51.786Z,50.28
2022-11-20T13:03:39.262Z,50.60
2022-11-20T13:06:16.498Z,49.80
2022-11-20T13:08:50.879Z,49.23
2022-11-20T13:11:27.678Z,48.87
2022-11-20T13:14:18.854Z,52.10
2022-11-20T13:16:54.511Z,50.50
2022-11-20T13:19:23.771Z,51.00
2022-11-20T13:21:52.786Z,50.00
2022-11-20T13:24:28.887Z,51.10
2022-11-20T13:27:22.745Z,52.87
2022-11-20T13:30:12.902Z,51.67
2022-11-20T13:32:51.966Z,49.22
2022-11-20T13:35:34.993Z,50.73
2022-11-20T13:38:10.496Z,51.03
2022-11-20T13:40:41.059Z,52.47
2022-11-20T13:46:03.997Z,51.27
2022-11-20T13:48:35.364Z,54.73
2022-11-20T13:51:30.178Z,52.77
2022-11-20T13:54:20.397Z,51.70
2022-11-20T13:57:04.041Z,51.83
2022-11-20T13:59:58.379Z,52.13
2022-11-20T14:02:30.119Z,51.45
2022-11-20T14:05:01.094Z,53.07
2022-11-20T14:07:38.335Z,50.40
2022-11-20T14:10:08.077Z,53.57
2022-11-20T14:12:37.876Z,50.15
2022-11-20T14:15:25.606Z,54.13
2022-11-20T14:17:54.002Z,56.30
2022-11-20T14:20:26.483Z,55.67
2022-11-20T14:22:56.102Z,53.30
2022-11-20T14:25:28.184Z,53.73
2022-11-20T14:28:00.070Z,56.67
2022-11-20T14:30:38.519Z,55.97
2022-11-20T14:33:07.141Z,58.43
2022-11-20T14:35:47.378Z,57.63
2022-11-20T14:38:20.104Z,58.75
2022-11-20T14:40:48.516Z,57.20
2022-11-20T14:43:24.872Z,58.93
2022-11-20T14:46:02.394Z,61.73
2022-11-20T14:48:36.294Z,57.77
2022-11-20T14:51:04.865Z,57.83
2022-11-20T14:53:33.265Z,57.60
2022-11-20T14:56:04.113Z,57.67
2022-11-20T14:58:35.380Z,54.90
2022-11-20T15:01:08.121Z,56.10
2022-11-20T15:03:39.355Z,57.40
2022-11-20T15:06:09.643Z,53.33
2022-11-20T15:08:38.658Z,54.70
2022-11-20T15:11:20.706Z,55.87
2022-11-20T15:13:49.139Z,54.63
2022-11-20T15:16:21.569Z,54.67
2022-11-20T15:18:50.592Z,52.30
2022-11-20T15:21:21.837Z,53.90
2022-11-20T15:23:50.685Z,50.35
2022-11-20T15:26:26.528Z,49.20
2022-11-20T15:28:55.623Z,52.20
2022-11-20T15:31:26.065Z,53.13
2022-11-20T15:33:54.585Z,50.13
2022-11-20T15:36:22.938Z,48.73
2022-11-20T15:38:51.402Z,49.10
2022-11-20T15:41:19.848Z,48.43
2022-11-20T15:43:48.246Z,46.88
2022-11-20T15:46:18.685Z,47.20
2022-11-20T15:48:56.877Z,45.20
2022-11-20T15:51:29.726Z,43.35
2022-11-20T15:53:58.970Z,44.38
2022-11-20T15:56:27.980Z,49.58
2022-11-20T15:58:56.363Z,45.92
2022-11-20T16:01:25.182Z,44.95
2022-11-20T16:03:54.854Z,44.85
2022-11-20T16:06:23.176Z,43.03
2022-11-20T16:08:51.622Z,45.13
2022-11-20T16:11:20.984Z,46.65
2022-11-20T16:14:06.885Z,47.92
2022-11-20T16:16:37.415Z,45.25
2022-11-20T16:19:07.632Z,43.38
2022-11-20T16:21:38.302Z,43.43
2022-11-20T16:26:38.614Z,42.85
2022-11-20T16:29:08.367Z,40.20
2022-11-20T16:31:37.215Z,40.83
2022-11-20T16:34:12.188Z,41.05
2022-11-20T16:36:42.922Z,38.20
2022-11-20T16:39:12.045Z,39.40
2022-11-20T16:41:41.090Z,39.90
2022-11-20T16:44:12.522Z,37.55
2022-11-20T16:46:41.856Z,35.75
2022-11-20T16:49:15.200Z,35.90
2022-11-20T16:51:43.842Z,37.22
2022-11-20T16:54:16.397Z,37.30
2022-11-20T16:56:48.548Z,37.13
2022-11-20T16:59:17.127Z,37.00
2022-11-20T17:01:45.565Z,36.47
2022-11-20T17:04:15.505Z,37.17
2022-11-20T17:06:45.840Z,36.55
2022-11-20T17:09:14.488Z,38.30
2022-11-20T17:11:43.212Z,36.83
2022-11-20T17:14:12.572Z,37.90
2022-11-20T17:16:41.312Z,35.08
2022-11-20T17:19:10.074Z,36.28
2022-11-20T17:21:40.401Z,34.15
2022-11-20T17:24:12.103Z,34.13
2022-11-20T17:26:43.243Z,35.33
2022-11-20T17:29:14.808Z,34.15
2022-11-20T17:31:44.548Z,33.20
2022-11-20T17:34:15.842Z,33.90
2022-11-20T17:36:46.612Z,33.42
2022-11-20T17:39:16.038Z,34.35
2022-11-20T17:41:44.769Z,36.08
2022-11-20T17:44:14.459Z,34.45
2022-11-20T17:46:43.020Z,32.87
2022-11-20T17:49:11.392Z,33.72
2022-11-20T17:51:40.695Z,32.42
2022-11-20T17:54:12.526Z,34.80
2022-11-20T17:56:58.257Z,33.85
2022-11-20T17:59:26.849Z,33.55
2022-11-20T18:01:56.786Z,33.10
2022-11-20T18:04:28.246Z,34.42
2022-11-20T18:06:56.649Z,33.22
2022-11-20T18:09:26.522Z,32.45
2022-11-20T18:11:55.075Z,32.15
2022-11-20T18:14:36.449Z,30.05
2022-11-20T18:17:08.165Z,32.20
2022-11-20T18:19:44.878Z,31.85
2022-11-20T18:22:24.046Z,32.90
2022-11-20T18:24:53.767Z,32.20
2022-11-20T18:27:23.922Z,31.48
2022-11-20T18:29:52.788Z,31.25
2022-11-20T18:32:22.629Z,31.80
2022-11-20T18:34:52.573Z,33.20
2022-11-20T18:37:21.602Z,30.05
2022-11-20T18:39:50.741Z,32.03
2022-11-20T18:42:38.131Z,31.05
2022-11-20T18:45:07.620Z,31.95
2022-11-20T18:47:40.231Z,33.45
2022-11-20T18:50:10.892Z,29.33
2022-11-20T18:52:45.533Z,27.45
2022-11-20T18:55:14.093Z,30.00
2022-11-20T18:57:43.920Z,29.33
2022-11-20T19:00:14.186Z,29.70
2022-11-20T19:02:43.538Z,30.10
2022-11-20T19:05:13.498Z,28.73
2022-11-20T19:07:42.092Z,28.90
2022-11-20T19:10:11.111Z,28.42
2022-11-20T19:12:39.597Z,27.80
2022-11-20T19:15:10.767Z,27.92
2022-11-20T19:17:39.229Z,29.23
2022-11-20T19:20:08.559Z,29.08
2022-11-20T19:22:37.312Z,29.25
2022-11-20T19:25:06.983Z,28.58
2022-11-20T19:27:35.516Z,27.27
2022-11-20T19:30:04.041Z,26.27
2022-11-20T19:32:35.313Z,26.55
2022-11-20T19:35:04.757Z,27.20
2022-11-20T19:37:35.156Z,29.15
2022-11-20T19:40:04.838Z,27.88
2022-11-20T19:42:33.812Z,29.45
2022-11-20T19:45:02.190Z,29.95
2022-11-20T19:48:00.532Z,28.45
2022-11-20T19:50:20.595Z,29.23
2022-11-20T19:52:51.074Z,30.15
2022-11-20T19:55:21.467Z,28.27
2022-11-20T19:57:50.106Z,28.08
2022-11-20T20:00:26.647Z,29.23
2022-11-20T20:02:59.529Z,29.33
2022-11-20T20:05:29.282Z,29.40
2022-11-20T20:07:57.704Z,31.70
2022-11-20T20:10:26.562Z,31.85
2022-11-20T20:12:54.884Z,30.08
2022-11-20T20:15:23.228Z,30.90
2022-11-20T20:17:53.402Z,30.10
2022-11-20T20:20:22.022Z,28.88
2022-11-20T20:22:51.818Z,28.67
2022-11-20T20:25:20.379Z,11.65
2022-11-20T20:27:48.771Z,9.60
2022-11-20T20:30:17.232Z,8.80
2022-11-20T20:32:45.616Z,9.38
2022-11-20T20:35:13.982Z,9.40
2022-11-20T20:37:42.418Z,7.72
2022-11-20T20:40:15.278Z,7.88
2022-11-20T20:42:43.919Z,8.48
2022-11-20T20:45:12.821Z,7.25
2022-11-20T20:47:42.622Z,7.20
2022-11-20T20:50:13.283Z,8.30
2022-11-20T20:55:12.688Z,6.93
2022-11-20T20:57:41.964Z,6.57
2022-11-20T21:00:11.351Z,6.55
2022-11-20T21:02:39.887Z,8.07
2022-11-20T21:05:09.190Z,6.88
2022-11-20T21:07:58.340Z,6.63
2022-11-20T21:10:28.327Z,6.82
2022-11-20T21:12:56.750Z,7.57
2022-11-20T21:15:25.069Z,6.47
2022-11-20T21:17:53.423Z,7.15
2022-11-20T21:20:39.512Z,6.93
2022-11-20T21:23:11.139Z,7.07
2022-11-20T21:25:41.372Z,6.35
2022-11-20T21:28:13.150Z,6.13
2022-11-20T21:30:45.463Z,6.35
2022-11-20T21:33:13.869Z,7.35
2022-11-20T21:35:42.381Z,7.07
2022-11-20T21:38:11.130Z,6.65
2022-11-20T21:40:40.890Z,6.78
2022-11-20T21:43:09.237Z,6.83
2022-11-20T21:45:37.683Z,6.55
2022-11-20T21:48:07.610Z,7.70
2022-11-20T21:50:36.344Z,6.88
2022-11-20T21:53:04.825Z,6.47
2022-11-20T21:55:33.129Z,7.10
2022-11-20T21:58:02.842Z,6.80
2022-11-20T22:00:31.309Z,7.27
2022-11-20T22:02:59.593Z,6.93
2022-11-20T22:05:28.015Z,6.50
2022-11-20T22:07:56.420Z,5.47
2022-11-20T22:10:24.756Z,6.03
2022-11-20T22:13:16.327Z,5.50
2022-11-20T22:16:00.372Z,5.97
2022-11-20T22:18:29.497Z,6.13
2022-11-20T22:20:57.836Z,5.95
2022-11-20T22:23:26.257Z,7.00
2022-11-20T22:25:54.885Z,5.57
2022-11-20T22:28:23.283Z,5.50
2022-11-20T22:30:52.929Z,5.78
2022-11-20T22:33:21.460Z,5.10
2022-11-20T22:35:49.766Z,5.03
2022-11-20T22:38:18.066Z,4.95
2022-11-20T22:40:46.813Z,4.72
2022-11-20T22:43:16.215Z,5.22
2022-11-20T22:45:45.658Z,4.82
2022-11-20T22:48:15.540Z,4.82
2022-11-20T22:50:43.866Z,5.43
2022-11-20T22:53:12.140Z,5.07
2022-11-20T22:55:40.538Z,6.00
2022-11-20T22:58:08.845Z,6.20
2022-11-20T23:00:37.168Z,5.43
2022-11-20T23:03:05.515Z,4.43
2022-11-20T23:05:35.315Z,4.25
2022-11-20T23:08:03.718Z,4.40
2022-11-20T23:10:32.212Z,4.88
2022-11-20T23:13:00.524Z,5.00
2022-11-20T23:15:28.843Z,5.55
2022-11-20T23:17:57.155Z,5.35
2022-11-20T23:20:25.566Z,5.32
2022-11-20T23:22:55.270Z,7.45
2022-11-20T23:25:23.624Z,10.82
2022-11-20T23:27:51.967Z,13.50
2022-11-20T23:30:20.557Z,15.63
2022-11-20T23:32:48.961Z,16.25
2022-11-20T23:35:17.478Z,17.48
2022-11-20T23:37:45.733Z,17.63
2022-11-20T23:40:15.947Z,17.90
2022-11-20T23:43:04.289Z,17.65
2022-11-20T23:45:32.639Z,19.25
2022-11-20T23:48:00.936Z,20.73
2022-11-20T23:50:29.238Z,20.15
2022-11-20T23:52:57.552Z,20.45
2022-11-20T23:55:27.386Z,21.60
2022-11-20T23:57:55.756Z,21.73
